sensor_id;sensor_type;location;lat;lon;timestamp;temperature;humidity
84294;DHT22;74463;51.182;3.210;2024-02-14T00:02:19;10.70;88.70
84294;DHT22;74463;51.182;3.210;2024-02-14T00:04:46;10.70;89.00
84294;DHT22;74463;51.182;3.210;2024-02-14T00:07:13;10.80;89.30
84294;DHT22;74463;51.182;3.210;2024-02-14T00:09:40;10.80;88.80
84294;DHT22;74463;51.182;3.210;2024-02-14T00:12:09;10.90;88.80
84294;DHT22;74463;51.182;3.210;2024-02-14T00:14:37;10.80;88.70
84294;DHT22;74463;51.182;3.210;2024-02-14T00:17:04;11.00;88.00
84294;DHT22;74463;51.182;3.210;2024-02-14T00:19:32;10.90;88.20
84294;DHT22;74463;51.182;3.210;2024-02-14T00:21:59;10.80;88.70
84294;DHT22;74463;51.182;3.210;2024-02-14T00:24:26;10.80;88.50
84294;DHT22;74463;51.182;3.210;2024-02-14T00:26:55;10.90;88.40
84294;DHT22;74463;51.182;3.210;2024-02-14T00:29:23;10.90;88.50
84294;DHT22;74463;51.182;3.210;2024-02-14T00:31:50;10.90;88.80
84294;DHT22;74463;51.182;3.210;2024-02-14T00:34:17;10.80;89.10
84294;DHT22;74463;51.182;3.210;2024-02-14T00:36:44;10.90;88.80
84294;DHT22;74463;51.182;3.210;2024-02-14T00:39:12;10.90;88.80
84294;DHT22;74463;51.182;3.210;2024-02-14T00:41:39;10.90;89.30
84294;DHT22;74463;51.182;3.210;2024-02-14T00:44:06;10.80;89.60
84294;DHT22;74463;51.182;3.210;2024-02-14T00:46:34;10.80;89.80
84294;DHT22;74463;51.182;3.210;2024-02-14T00:49:01;10.70;90.30
84294;DHT22;74463;51.182;3.210;2024-02-14T00:51:28;10.70;90.50
84294;DHT22;74463;51.182;3.210;2024-02-14T00:53:55;10.70;90.70
84294;DHT22;74463;51.182;3.210;2024-02-14T00:56:22;10.70;90.60
84294;DHT22;74463;51.182;3.210;2024-02-14T00:58:49;10.70;90.80
84294;DHT22;74463;51.182;3.210;2024-02-14T01:01:16;10.80;90.80
84294;DHT22;74463;51.182;3.210;2024-02-14T01:03:45;10.70;90.70
84294;DHT22;74463;51.182;3.210;2024-02-14T01:06:12;10.80;90.40
84294;DHT22;74463;51.182;3.210;2024-02-14T01:08:39;10.90;90.40
84294;DHT22;74463;51.182;3.210;2024-02-14T01:11:07;10.90;90.40
84294;DHT22;74463;51.182;3.210;2024-02-14T01:13:34;10.90;90.40
84294;DHT22;74463;51.182;3.210;2024-02-14T01:16:01;11.00;90.30
84294;DHT22;74463;51.182;3.210;2024-02-14T01:18:29;11.00;90.20
84294;DHT22;74463;51.182;3.210;2024-02-14T01:20:57;11.00;90.20
84294;DHT22;74463;51.182;3.210;2024-02-14T01:23:26;11.10;90.10
84294;DHT22;74463;51.182;3.210;2024-02-14T01:25:53;11.00;90.30
84294;DHT22;74463;51.182;3.210;2024-02-14T01:28:21;11.00;90.30
84294;DHT22;74463;51.182;3.210;2024-02-14T01:30:48;11.00;90.20
84294;DHT22;74463;51.182;3.210;2024-02-14T01:33:16;11.10;90.10
84294;DHT22;74463;51.182;3.210;2024-02-14T01:35:43;11.10;90.00
84294;DHT22;74463;51.182;3.210;2024-02-14T01:38:12;11.10;89.80
84294;DHT22;74463;51.182;3.210;2024-02-14T01:40:42;11.20;89.80
84294;DHT22;74463;51.182;3.210;2024-02-14T01:43:10;11.20;89.30
84294;DHT22;74463;51.182;3.210;2024-02-14T01:45:37;11.20;89.50
84294;DHT22;74463;51.182;3.210;2024-02-14T01:48:06;11.30;89.30
84294;DHT22;74463;51.182;3.210;2024-02-14T01:50:34;11.30;89.60
84294;DHT22;74463;51.182;3.210;2024-02-14T01:53:01;11.10;90.10
84294;DHT22;74463;51.182;3.210;2024-02-14T01:55:30;11.30;90.00
84294;DHT22;74463;51.182;3.210;2024-02-14T01:57:58;11.30;90.00
84294;DHT22;74463;51.182;3.210;2024-02-14T02:00:25;11.30;89.80
84294;DHT22;74463;51.182;3.210;2024-02-14T02:02:53;11.20;90.10
84294;DHT22;74463;51.182;3.210;2024-02-14T02:05:21;11.20;90.00
84294;DHT22;74463;51.182;3.210;2024-02-14T02:07:48;11.20;90.30
84294;DHT22;74463;51.182;3.210;2024-02-14T02:10:15;11.20;90.40
84294;DHT22;74463;51.182;3.210;2024-02-14T02:12:44;11.10;90.60
84294;DHT22;74463;51.182;3.210;2024-02-14T02:15:11;11.20;90.50
84294;DHT22;74463;51.182;3.210;2024-02-14T02:17:40;11.30;90.50
84294;DHT22;74463;51.182;3.210;2024-02-14T02:20:08;11.40;90.20
84294;DHT22;74463;51.182;3.210;2024-02-14T02:22:35;11.30;90.20
84294;DHT22;74463;51.182;3.210;2024-02-14T02:25:05;11.30;90.50
84294;DHT22;74463;51.182;3.210;2024-02-14T02:27:33;11.40;90.30
84294;DHT22;74463;51.182;3.210;2024-02-14T02:30:04;11.40;90.50
84294;DHT22;74463;51.182;3.210;2024-02-14T02:32:31;11.30;90.30
84294;DHT22;74463;51.182;3.210;2024-02-14T02:34:58;11.50;90.60
84294;DHT22;74463;51.182;3.210;2024-02-14T02:37:25;11.50;90.00
84294;DHT22;74463;51.182;3.210;2024-02-14T02:39:54;11.50;90.30
84294;DHT22;74463;51.182;3.210;2024-02-14T02:42:22;11.30;90.50
84294;DHT22;74463;51.182;3.210;2024-02-14T02:44:50;11.40;90.50
84294;DHT22;74463;51.182;3.210;2024-02-14T02:47:17;11.40;90.60
84294;DHT22;74463;51.182;3.210;2024-02-14T02:49:44;11.40;90.50
84294;DHT22;74463;51.182;3.210;2024-02-14T02:52:11;11.40;90.60
84294;DHT22;74463;51.182;3.210;2024-02-14T02:54:38;11.30;90.80
84294;DHT22;74463;51.182;3.210;2024-02-14T02:57:06;11.40;90.70
84294;DHT22;74463;51.182;3.210;2024-02-14T02:59:35;11.50;90.30
84294;DHT22;74463;51.182;3.210;2024-02-14T03:02:02;11.60;90.30
84294;DHT22;74463;51.182;3.210;2024-02-14T03:04:29;11.60;90.30
84294;DHT22;74463;51.182;3.210;2024-02-14T03:06:57;11.50;90.30
84294;DHT22;74463;51.182;3.210;2024-02-14T03:09:25;11.50;90.60
84294;DHT22;74463;51.182;3.210;2024-02-14T03:11:54;11.50;90.60
84294;DHT22;74463;51.182;3.210;2024-02-14T03:14:22;11.50;90.60
84294;DHT22;74463;51.182;3.210;2024-02-14T03:16:50;11.50;90.90
84294;DHT22;74463;51.182;3.210;2024-02-14T03:19:17;11.40;91.00
84294;DHT22;74463;51.182;3.210;2024-02-14T03:21:44;11.40;91.10
84294;DHT22;74463;51.182;3.210;2024-02-14T03:24:12;11.40;91.20
84294;DHT22;74463;51.182;3.210;2024-02-14T03:26:40;11.40;91.30
84294;DHT22;74463;51.182;3.210;2024-02-14T03:29:07;11.40;91.50
84294;DHT22;74463;51.182;3.210;2024-02-14T03:31:34;11.50;91.50
84294;DHT22;74463;51.182;3.210;2024-02-14T03:34:03;11.50;91.30
84294;DHT22;74463;51.182;3.210;2024-02-14T03:36:30;11.50;91.20
84294;DHT22;74463;51.182;3.210;2024-02-14T03:38:59;11.50;91.20
84294;DHT22;74463;51.182;3.210;2024-02-14T03:41:29;11.40;91.50
84294;DHT22;74463;51.182;3.210;2024-02-14T03:43:56;11.40;91.50
84294;DHT22;74463;51.182;3.210;2024-02-14T03:46:26;11.40;91.60
84294;DHT22;74463;51.182;3.210;2024-02-14T03:48:53;11.50;91.50
84294;DHT22;74463;51.182;3.210;2024-02-14T03:51:22;11.40;91.60
84294;DHT22;74463;51.182;3.210;2024-02-14T03:53:49;11.50;91.50
84294;DHT22;74463;51.182;3.210;2024-02-14T03:56:17;11.50;91.50
84294;DHT22;74463;51.182;3.210;2024-02-14T03:58:43;11.60;91.30
84294;DHT22;74463;51.182;3.210;2024-02-14T04:01:12;11.70;91.30
84294;DHT22;74463;51.182;3.210;2024-02-14T04:03:39;11.60;91.20
84294;DHT22;74463;51.182;3.210;2024-02-14T04:06:06;11.50;91.50
84294;DHT22;74463;51.182;3.210;2024-02-14T04:08:35;11.40;91.90
84294;DHT22;74463;51.182;3.210;2024-02-14T04:11:02;11.50;91.90
84294;DHT22;74463;51.182;3.210;2024-02-14T04:13:29;11.70;91.60
84294;DHT22;74463;51.182;3.210;2024-02-14T04:15:55;11.70;91.50
84294;DHT22;74463;51.182;3.210;2024-02-14T04:18:22;11.70;91.50
84294;DHT22;74463;51.182;3.210;2024-02-14T04:20:49;11.80;91.30
84294;DHT22;74463;51.182;3.210;2024-02-14T04:23:16;11.90;91.30
84294;DHT22;74463;51.182;3.210;2024-02-14T04:25:45;11.90;91.00
84294;DHT22;74463;51.182;3.210;2024-02-14T04:28:13;11.90;91.50
84294;DHT22;74463;51.182;3.210;2024-02-14T04:30:40;11.80;91.30
84294;DHT22;74463;51.182;3.210;2024-02-14T04:33:09;11.90;91.30
84294;DHT22;74463;51.182;3.210;2024-02-14T04:35:37;11.80;91.30
84294;DHT22;74463;51.182;3.210;2024-02-14T04:38:04;11.80;91.70
84294;DHT22;74463;51.182;3.210;2024-02-14T04:40:31;11.80;91.70
84294;DHT22;74463;51.182;3.210;2024-02-14T04:42:59;11.80;91.70
84294;DHT22;74463;51.182;3.210;2024-02-14T04:45:26;11.80;91.60
84294;DHT22;74463;51.182;3.210;2024-02-14T04:47:53;11.70;91.70
84294;DHT22;74463;51.182;3.210;2024-02-14T04:50:20;11.80;91.70
84294;DHT22;74463;51.182;3.210;2024-02-14T04:52:47;11.80;91.70
84294;DHT22;74463;51.182;3.210;2024-02-14T04:55:14;11.80;91.60
84294;DHT22;74463;51.182;3.210;2024-02-14T04:57:41;11.90;91.10
84294;DHT22;74463;51.182;3.210;2024-02-14T05:00:11;12.00;91.00
84294;DHT22;74463;51.182;3.210;2024-02-14T05:02:39;11.90;91.10
84294;DHT22;74463;51.182;3.210;2024-02-14T05:05:06;11.90;91.00
84294;DHT22;74463;51.182;3.210;2024-02-14T05:07:34;12.00;90.90
84294;DHT22;74463;51.182;3.210;2024-02-14T05:10:01;11.90;90.90
84294;DHT22;74463;51.182;3.210;2024-02-14T05:12:28;11.90;90.90
84294;DHT22;74463;51.182;3.210;2024-02-14T05:14:55;11.90;90.80
84294;DHT22;74463;51.182;3.210;2024-02-14T05:17:24;11.90;90.80
84294;DHT22;74463;51.182;3.210;2024-02-14T05:19:50;12.00;90.70
84294;DHT22;74463;51.182;3.210;2024-02-14T05:22:18;11.90;90.50
84294;DHT22;74463;51.182;3.210;2024-02-14T05:24:45;11.90;90.80
84294;DHT22;74463;51.182;3.210;2024-02-14T05:27:12;12.00;90.80
84294;DHT22;74463;51.182;3.210;2024-02-14T05:29:39;12.00;90.70
84294;DHT22;74463;51.182;3.210;2024-02-14T05:32:06;11.80;90.90
84294;DHT22;74463;51.182;3.210;2024-02-14T05:34:36;11.90;91.00
84294;DHT22;74463;51.182;3.210;2024-02-14T05:37:03;11.90;91.00
84294;DHT22;74463;51.182;3.210;2024-02-14T05:39:31;12.00;90.90
84294;DHT22;74463;51.182;3.210;2024-02-14T05:41:58;12.10;90.30
84294;DHT22;74463;51.182;3.210;2024-02-14T05:44:25;12.10;90.20
84294;DHT22;74463;51.182;3.210;2024-02-14T05:46:53;12.00;90.50
84294;DHT22;74463;51.182;3.210;2024-02-14T05:49:21;12.10;90.20
84294;DHT22;74463;51.182;3.210;2024-02-14T05:51:49;12.00;90.20
84294;DHT22;74463;51.182;3.210;2024-02-14T05:54:17;12.10;90.40
84294;DHT22;74463;51.182;3.210;2024-02-14T05:56:44;12.20;90.00
84294;DHT22;74463;51.182;3.210;2024-02-14T05:59:11;12.10;90.10
84294;DHT22;74463;51.182;3.210;2024-02-14T06:01:38;12.10;90.20
84294;DHT22;74463;51.182;3.210;2024-02-14T06:04:05;12.10;90.00
84294;DHT22;74463;51.182;3.210;2024-02-14T06:06:32;12.20;89.70
84294;DHT22;74463;51.182;3.210;2024-02-14T06:09:00;12.20;90.00
84294;DHT22;74463;51.182;3.210;2024-02-14T06:11:34;12.20;90.00
84294;DHT22;74463;51.182;3.210;2024-02-14T06:14:01;12.20;89.90
84294;DHT22;74463;51.182;3.210;2024-02-14T06:16:29;12.10;90.20
84294;DHT22;74463;51.182;3.210;2024-02-14T06:18:55;12.10;90.20
84294;DHT22;74463;51.182;3.210;2024-02-14T06:21:22;12.10;90.20
84294;DHT22;74463;51.182;3.210;2024-02-14T06:23:51;12.20;90.20
84294;DHT22;74463;51.182;3.210;2024-02-14T06:26:19;12.20;90.00
84294;DHT22;74463;51.182;3.210;2024-02-14T06:28:46;12.20;90.10
84294;DHT22;74463;51.182;3.210;2024-02-14T06:31:17;12.20;90.10
84294;DHT22;74463;51.182;3.210;2024-02-14T06:33:43;12.20;90.30
84294;DHT22;74463;51.182;3.210;2024-02-14T06:36:10;12.10;90.30
84294;DHT22;74463;51.182;3.210;2024-02-14T06:38:37;12.00;90.70
84294;DHT22;74463;51.182;3.210;2024-02-14T06:41:05;11.90;91.10
84294;DHT22;74463;51.182;3.210;2024-02-14T06:43:33;11.90;91.20
84294;DHT22;74463;51.182;3.210;2024-02-14T06:46:01;11.90;91.60
84294;DHT22;74463;51.182;3.210;2024-02-14T06:48:28;11.90;91.40
84294;DHT22;74463;51.182;3.210;2024-02-14T06:50:55;11.90;91.40
84294;DHT22;74463;51.182;3.210;2024-02-14T06:53:22;11.80;91.80
84294;DHT22;74463;51.182;3.210;2024-02-14T06:55:50;11.70;92.00
84294;DHT22;74463;51.182;3.210;2024-02-14T06:58:17;11.70;92.10
84294;DHT22;74463;51.182;3.210;2024-02-14T07:00:46;11.70;92.10
84294;DHT22;74463;51.182;3.210;2024-02-14T07:03:13;11.80;92.00
84294;DHT22;74463;51.182;3.210;2024-02-14T07:05:40;11.80;91.90
84294;DHT22;74463;51.182;3.210;2024-02-14T07:08:07;11.70;92.10
84294;DHT22;74463;51.182;3.210;2024-02-14T07:10:34;11.70;92.20
84294;DHT22;74463;51.182;3.210;2024-02-14T07:13:01;11.70;92.70
84294;DHT22;74463;51.182;3.210;2024-02-14T07:15:28;11.80;92.30
84294;DHT22;74463;51.182;3.210;2024-02-14T07:17:57;11.90;92.00
84294;DHT22;74463;51.182;3.210;2024-02-14T07:20:24;11.90;91.80
84294;DHT22;74463;51.182;3.210;2024-02-14T07:22:52;11.80;92.00
84294;DHT22;74463;51.182;3.210;2024-02-14T07:25:21;11.90;92.10
84294;DHT22;74463;51.182;3.210;2024-02-14T07:27:48;12.00;91.90
84294;DHT22;74463;51.182;3.210;2024-02-14T07:30:15;12.00;91.70
84294;DHT22;74463;51.182;3.210;2024-02-14T07:32:42;11.90;91.90
84294;DHT22;74463;51.182;3.210;2024-02-14T07:35:11;11.90;91.90
84294;DHT22;74463;51.182;3.210;2024-02-14T07:37:39;12.00;91.70
84294;DHT22;74463;51.182;3.210;2024-02-14T07:40:08;12.00;92.00
84294;DHT22;74463;51.182;3.210;2024-02-14T07:42:35;11.80;92.20
84294;DHT22;74463;51.182;3.210;2024-02-14T07:45:03;11.90;92.30
84294;DHT22;74463;51.182;3.210;2024-02-14T07:47:30;11.90;92.20
84294;DHT22;74463;51.182;3.210;2024-02-14T07:49:57;11.90;92.30
84294;DHT22;74463;51.182;3.210;2024-02-14T07:52:25;11.90;92.30
84294;DHT22;74463;51.182;3.210;2024-02-14T07:54:52;11.90;92.40
84294;DHT22;74463;51.182;3.210;2024-02-14T07:59:48;11.90;92.30
84294;DHT22;74463;51.182;3.210;2024-02-14T08:02:15;11.90;92.40
84294;DHT22;74463;51.182;3.210;2024-02-14T08:04:42;12.00;92.00
84294;DHT22;74463;51.182;3.210;2024-02-14T08:07:09;12.00;92.10
84294;DHT22;74463;51.182;3.210;2024-02-14T08:09:37;12.00;92.10
84294;DHT22;74463;51.182;3.210;2024-02-14T08:12:06;12.00;91.90
84294;DHT22;74463;51.182;3.210;2024-02-14T08:14:33;12.00;92.10
84294;DHT22;74463;51.182;3.210;2024-02-14T08:17:00;11.90;92.10
84294;DHT22;74463;51.182;3.210;2024-02-14T08:19:27;12.00;92.30
84294;DHT22;74463;51.182;3.210;2024-02-14T08:21:53;12.00;92.10
84294;DHT22;74463;51.182;3.210;2024-02-14T08:24:25;12.10;92.00
84294;DHT22;74463;51.182;3.210;2024-02-14T08:26:53;12.20;91.70
84294;DHT22;74463;51.182;3.210;2024-02-14T08:29:20;12.10;91.70
84294;DHT22;74463;51.182;3.210;2024-02-14T08:31:47;12.20;91.60
84294;DHT22;74463;51.182;3.210;2024-02-14T08:34:14;12.10;91.50
84294;DHT22;74463;51.182;3.210;2024-02-14T08:36:42;12.20;91.60
84294;DHT22;74463;51.182;3.210;2024-02-14T08:39:09;12.30;91.10
84294;DHT22;74463;51.182;3.210;2024-02-14T08:41:36;12.20;91.20
84294;DHT22;74463;51.182;3.210;2024-02-14T08:44:05;12.20;91.50
84294;DHT22;74463;51.182;3.210;2024-02-14T08:46:32;12.20;91.40
84294;DHT22;74463;51.182;3.210;2024-02-14T08:49:00;12.10;91.70
84294;DHT22;74463;51.182;3.210;2024-02-14T08:51:28;12.20;91.60
84294;DHT22;74463;51.182;3.210;2024-02-14T08:53:55;12.20;91.50
84294;DHT22;74463;51.182;3.210;2024-02-14T08:56:25;12.30;91.40
84294;DHT22;74463;51.182;3.210;2024-02-14T08:58:52;12.30;91.50
84294;DHT22;74463;51.182;3.210;2024-02-14T09:01:20;12.30;91.60
84294;DHT22;74463;51.182;3.210;2024-02-14T09:03:48;12.30;91.80
84294;DHT22;74463;51.182;3.210;2024-02-14T09:06:16;12.40;91.40
84294;DHT22;74463;51.182;3.210;2024-02-14T09:08:44;12.40;91.20
84294;DHT22;74463;51.182;3.210;2024-02-14T09:11:11;12.30;91.40
84294;DHT22;74463;51.182;3.210;2024-02-14T09:13:38;12.30;91.60
84294;DHT22;74463;51.182;3.210;2024-02-14T09:16:06;12.30;91.90
84294;DHT22;74463;51.182;3.210;2024-02-14T09:18:34;12.30;91.70
84294;DHT22;74463;51.182;3.210;2024-02-14T09:21:01;12.30;91.70
84294;DHT22;74463;51.182;3.210;2024-02-14T09:23:29;12.40;91.70
84294;DHT22;74463;51.182;3.210;2024-02-14T09:25:57;12.40;91.70
84294;DHT22;74463;51.182;3.210;2024-02-14T09:28:24;12.40;91.80
84294;DHT22;74463;51.182;3.210;2024-02-14T09:30:51;12.40;91.60
84294;DHT22;74463;51.182;3.210;2024-02-14T09:33:18;12.50;91.50
84294;DHT22;74463;51.182;3.210;2024-02-14T09:35:47;12.50;91.70
84294;DHT22;74463;51.182;3.210;2024-02-14T09:38:15;12.60;91.60
84294;DHT22;74463;51.182;3.210;2024-02-14T09:40:43;12.60;91.50
84294;DHT22;74463;51.182;3.210;2024-02-14T09:43:17;12.50;91.70
84294;DHT22;74463;51.182;3.210;2024-02-14T09:45:51;12.60;91.80
84294;DHT22;74463;51.182;3.210;2024-02-14T09:48:19;12.60;91.80
84294;DHT22;74463;51.182;3.210;2024-02-14T09:50:49;12.60;91.70
84294;DHT22;74463;51.182;3.210;2024-02-14T09:53:16;12.70;91.70
84294;DHT22;74463;51.182;3.210;2024-02-14T09:55:46;12.70;91.70
84294;DHT22;74463;51.182;3.210;2024-02-14T09:58:13;12.70;91.70
84294;DHT22;74463;51.182;3.210;2024-02-14T10:00:40;12.80;91.50
84294;DHT22;74463;51.182;3.210;2024-02-14T10:03:08;12.80;91.60
84294;DHT22;74463;51.182;3.210;2024-02-14T10:05:35;12.80;91.80
84294;DHT22;74463;51.182;3.210;2024-02-14T10:08:04;12.80;91.50
84294;DHT22;74463;51.182;3.210;2024-02-14T10:10:32;12.80;91.80
84294;DHT22;74463;51.182;3.210;2024-02-14T10:13:03;12.70;92.00
84294;DHT22;74463;51.182;3.210;2024-02-14T10:15:31;12.70;92.10
84294;DHT22;74463;51.182;3.210;2024-02-14T10:17:58;12.60;92.20
84294;DHT22;74463;51.182;3.210;2024-02-14T10:20:25;12.70;92.40
84294;DHT22;74463;51.182;3.210;2024-02-14T10:23:00;12.70;92.20
84294;DHT22;74463;51.182;3.210;2024-02-14T10:25:28;12.70;92.50
84294;DHT22;74463;51.182;3.210;2024-02-14T10:27:57;12.80;92.20
84294;DHT22;74463;51.182;3.210;2024-02-14T10:30:24;12.80;92.30
84294;DHT22;74463;51.182;3.210;2024-02-14T10:32:51;12.80;92.10
84294;DHT22;74463;51.182;3.210;2024-02-14T10:35:20;12.90;92.30
84294;DHT22;74463;51.182;3.210;2024-02-14T10:37:47;12.80;92.30
84294;DHT22;74463;51.182;3.210;2024-02-14T10:40:15;12.80;92.40
84294;DHT22;74463;51.182;3.210;2024-02-14T10:42:44;12.80;92.40
84294;DHT22;74463;51.182;3.210;2024-02-14T10:45:11;12.90;92.30
84294;DHT22;74463;51.182;3.210;2024-02-14T10:47:40;12.90;92.30
84294;DHT22;74463;51.182;3.210;2024-02-14T10:50:13;13.00;92.10
84294;DHT22;74463;51.182;3.210;2024-02-14T10:52:41;13.10;91.90
84294;DHT22;74463;51.182;3.210;2024-02-14T10:55:09;13.00;91.90
84294;DHT22;74463;51.182;3.210;2024-02-14T10:57:38;13.00;92.20
84294;DHT22;74463;51.182;3.210;2024-02-14T11:00:12;13.10;92.00
84294;DHT22;74463;51.182;3.210;2024-02-14T11:02:41;13.10;92.30
84294;DHT22;74463;51.182;3.210;2024-02-14T11:05:12;13.20;92.00
84294;DHT22;74463;51.182;3.210;2024-02-14T11:07:44;13.20;91.80
84294;DHT22;74463;51.182;3.210;2024-02-14T11:10:14;13.20;91.90
84294;DHT22;74463;51.182;3.210;2024-02-14T11:12:42;13.20;91.90
84294;DHT22;74463;51.182;3.210;2024-02-14T11:15:16;13.20;91.90
84294;DHT22;74463;51.182;3.210;2024-02-14T11:17:43;13.10;92.10
84294;DHT22;74463;51.182;3.210;2024-02-14T11:20:17;13.20;91.90
84294;DHT22;74463;51.182;3.210;2024-02-14T11:22:53;13.10;92.20
84294;DHT22;74463;51.182;3.210;2024-02-14T11:25:29;13.20;92.30
84294;DHT22;74463;51.182;3.210;2024-02-14T11:28:00;13.30;92.00
84294;DHT22;74463;51.182;3.210;2024-02-14T11:30:34;13.40;91.50
84294;DHT22;74463;51.182;3.210;2024-02-14T11:33:14;13.30;91.70
84294;DHT22;74463;51.182;3.210;2024-02-14T11:35:41;13.40;91.70
84294;DHT22;74463;51.182;3.210;2024-02-14T11:38:09;13.40;91.50
84294;DHT22;74463;51.182;3.210;2024-02-14T11:40:36;13.40;91.70
84294;DHT22;74463;51.182;3.210;2024-02-14T11:43:05;13.40;91.90
84294;DHT22;74463;51.182;3.210;2024-02-14T11:45:34;13.30;92.20
84294;DHT22;74463;51.182;3.210;2024-02-14T11:48:01;13.40;92.00
84294;DHT22;74463;51.182;3.210;2024-02-14T11:50:28;13.30;92.10
84294;DHT22;74463;51.182;3.210;2024-02-14T11:52:55;13.20;92.60
84294;DHT22;74463;51.182;3.210;2024-02-14T11:55:27;13.20;92.80
84294;DHT22;74463;51.182;3.210;2024-02-14T11:57:55;13.20;92.80
84294;DHT22;74463;51.182;3.210;2024-02-14T12:00:22;13.20;93.00
84294;DHT22;74463;51.182;3.210;2024-02-14T12:02:51;13.20;93.20
84294;DHT22;74463;51.182;3.210;2024-02-14T12:05:18;13.30;93.00
84294;DHT22;74463;51.182;3.210;2024-02-14T12:07:46;13.30;92.70
84294;DHT22;74463;51.182;3.210;2024-02-14T12:10:13;13.30;92.90
84294;DHT22;74463;51.182;3.210;2024-02-14T12:12:40;13.30;92.80
84294;DHT22;74463;51.182;3.210;2024-02-14T12:15:10;13.40;92.60
84294;DHT22;74463;51.182;3.210;2024-02-14T12:17:37;13.30;92.60
84294;DHT22;74463;51.182;3.210;2024-02-14T12:20:08;13.30;92.70
84294;DHT22;74463;51.182;3.210;2024-02-14T12:22:36;13.40;92.50
84294;DHT22;74463;51.182;3.210;2024-02-14T12:25:06;13.40;92.70
84294;DHT22;74463;51.182;3.210;2024-02-14T12:27:33;13.30;92.80
84294;DHT22;74463;51.182;3.210;2024-02-14T12:30:04;13.30;93.30
84294;DHT22;74463;51.182;3.210;2024-02-14T12:32:31;13.30;92.70
84294;DHT22;74463;51.182;3.210;2024-02-14T12:34:58;13.30;92.80
84294;DHT22;74463;51.182;3.210;2024-02-14T12:37:26;13.30;92.90
84294;DHT22;74463;51.182;3.210;2024-02-14T12:39:53;13.40;92.90
84294;DHT22;74463;51.182;3.210;2024-02-14T12:42:21;13.30;92.90
84294;DHT22;74463;51.182;3.210;2024-02-14T12:44:51;13.30;92.90
84294;DHT22;74463;51.182;3.210;2024-02-14T12:47:19;13.30;93.10
84294;DHT22;74463;51.182;3.210;2024-02-14T12:49:47;13.30;93.20
84294;DHT22;74463;51.182;3.210;2024-02-14T12:52:14;13.30;93.20
84294;DHT22;74463;51.182;3.210;2024-02-14T12:54:43;13.40;93.00
84294;DHT22;74463;51.182;3.210;2024-02-14T12:57:10;13.40;92.90
84294;DHT22;74463;51.182;3.210;2024-02-14T12:59:37;13.30;93.00
84294;DHT22;74463;51.182;3.210;2024-02-14T13:02:04;13.50;92.60
84294;DHT22;74463;51.182;3.210;2024-02-14T13:04:33;13.40;92.70
84294;DHT22;74463;51.182;3.210;2024-02-14T13:07:00;13.40;93.00
84294;DHT22;74463;51.182;3.210;2024-02-14T13:09:27;13.30;93.10
84294;DHT22;74463;51.182;3.210;2024-02-14T13:11:56;13.40;93.10
84294;DHT22;74463;51.182;3.210;2024-02-14T13:14:23;13.40;92.90
84294;DHT22;74463;51.182;3.210;2024-02-14T13:16:50;13.40;93.10
84294;DHT22;74463;51.182;3.210;2024-02-14T13:19:17;13.40;93.10
84294;DHT22;74463;51.182;3.210;2024-02-14T13:21:44;13.40;93.50
84294;DHT22;74463;51.182;3.210;2024-02-14T13:24:12;13.50;92.80
84294;DHT22;74463;51.182;3.210;2024-02-14T13:26:39;13.50;92.70
84294;DHT22;74463;51.182;3.210;2024-02-14T13:29:08;13.50;92.70
84294;DHT22;74463;51.182;3.210;2024-02-14T13:31:35;13.50;92.70
84294;DHT22;74463;51.182;3.210;2024-02-14T13:34:02;13.50;93.20
84294;DHT22;74463;51.182;3.210;2024-02-14T13:36:30;13.60;92.50
84294;DHT22;74463;51.182;3.210;2024-02-14T13:38:57;13.60;92.40
84294;DHT22;74463;51.182;3.210;2024-02-14T13:41:25;13.50;92.70
84294;DHT22;74463;51.182;3.210;2024-02-14T13:43:52;13.60;92.40
84294;DHT22;74463;51.182;3.210;2024-02-14T13:46:21;13.70;92.20
84294;DHT22;74463;51.182;3.210;2024-02-14T13:48:48;13.60;92.40
84294;DHT22;74463;51.182;3.210;2024-02-14T13:51:15;13.70;92.40
84294;DHT22;74463;51.182;3.210;2024-02-14T13:53:42;13.80;92.00
84294;DHT22;74463;51.182;3.210;2024-02-14T13:56:09;13.80;92.10
84294;DHT22;74463;51.182;3.210;2024-02-14T13:58:36;13.80;92.00
84294;DHT22;74463;51.182;3.210;2024-02-14T14:01:05;13.80;92.10
84294;DHT22;74463;51.182;3.210;2024-02-14T14:03:34;13.80;92.00
84294;DHT22;74463;51.182;3.210;2024-02-14T14:06:02;13.80;91.90
84294;DHT22;74463;51.182;3.210;2024-02-14T14:08:30;13.70;92.30
84294;DHT22;74463;51.182;3.210;2024-02-14T14:10:57;13.70;92.20
84294;DHT22;74463;51.182;3.210;2024-02-14T14:13:24;13.80;91.80
84294;DHT22;74463;51.182;3.210;2024-02-14T14:15:54;13.80;92.10
84294;DHT22;74463;51.182;3.210;2024-02-14T14:18:22;13.90;91.70
84294;DHT22;74463;51.182;3.210;2024-02-14T14:20:51;13.80;91.80
84294;DHT22;74463;51.182;3.210;2024-02-14T14:23:18;13.70;92.30
84294;DHT22;74463;51.182;3.210;2024-02-14T14:25:45;13.80;92.10
84294;DHT22;74463;51.182;3.210;2024-02-14T14:28:12;13.70;92.00
84294;DHT22;74463;51.182;3.210;2024-02-14T14:30:40;13.80;91.90
84294;DHT22;74463;51.182;3.210;2024-02-14T14:33:07;13.90;91.80
84294;DHT22;74463;51.182;3.210;2024-02-14T14:35:34;13.90;91.50
84294;DHT22;74463;51.182;3.210;2024-02-14T14:38:03;13.90;91.50
84294;DHT22;74463;51.182;3.210;2024-02-14T14:40:30;13.80;91.50
84294;DHT22;74463;51.182;3.210;2024-02-14T14:42:57;13.80;91.90
84294;DHT22;74463;51.182;3.210;2024-02-14T14:45:24;14.00;91.50
84294;DHT22;74463;51.182;3.210;2024-02-14T14:47:53;13.90;91.50
84294;DHT22;74463;51.182;3.210;2024-02-14T14:50:21;14.00;91.30
84294;DHT22;74463;51.182;3.210;2024-02-14T14:52:47;14.00;91.30
84294;DHT22;74463;51.182;3.210;2024-02-14T14:55:16;14.00;91.20
84294;DHT22;74463;51.182;3.210;2024-02-14T14:57:43;14.00;91.30
84294;DHT22;74463;51.182;3.210;2024-02-14T15:00:10;14.00;91.40
84294;DHT22;74463;51.182;3.210;2024-02-14T15:02:38;14.00;91.20
84294;DHT22;74463;51.182;3.210;2024-02-14T15:05:08;13.90;91.80
84294;DHT22;74463;51.182;3.210;2024-02-14T15:07:36;13.90;91.40
84294;DHT22;74463;51.182;3.210;2024-02-14T15:10:03;13.90;91.20
84294;DHT22;74463;51.182;3.210;2024-02-14T15:12:32;13.90;91.50
84294;DHT22;74463;51.182;3.210;2024-02-14T15:15:01;13.90;91.40
84294;DHT22;74463;51.182;3.210;2024-02-14T15:17:29;14.00;91.40
84294;DHT22;74463;51.182;3.210;2024-02-14T15:19:56;14.10;91.10
84294;DHT22;74463;51.182;3.210;2024-02-14T15:22:23;14.10;90.80
84294;DHT22;74463;51.182;3.210;2024-02-14T15:24:50;14.10;90.80
84294;DHT22;74463;51.182;3.210;2024-02-14T15:27:18;14.10;90.70
84294;DHT22;74463;51.182;3.210;2024-02-14T15:29:50;14.20;90.50
84294;DHT22;74463;51.182;3.210;2024-02-14T15:32:35;14.20;90.20
84294;DHT22;74463;51.182;3.210;2024-02-14T15:35:19;14.00;90.70
84294;DHT22;74463;51.182;3.210;2024-02-14T15:37:46;14.00;90.80